| Date | Temp | Humidity | Rainfall | Dew Point | Wind Direction | Wind Speed | Wind Pressure | Condition | Visibility |
|---|---|---|---|---|---|---|---|---|---|
| 2025-05-09 11:02:48 | 30 | 67 | 23 | 250 | 13.3 | 1011 | Showers | 9 KM | |
| 2025-05-09 10:00:51 | 31 | 73 | 25 | 120 | 5.7 | 1011 | Partly Cloudy (Day) | 20 KM | |
| 2025-05-09 09:00:48 | 30 | 73 | 25 | 360 | 3.8 | 1011 | Partly Cloudy (Day) | 20 KM | |
| 2025-05-09 08:09:34 | 27 | 90 | 0.0 | 26 | 220 | 5.7 | 1008 | Partly Cloudy (Night) | 10 KM |
| 2025-05-09 08:00:44 | 29 | 82 | 0.0 | 25 | 230 | 3.8 | 1010 | Thunderstorm | 15 KM |
| 2025-05-09 07:38:37 | 27 | 92 | 0.0 | 25 | 200 | 3.8 | 1007 | Partly Cloudy (Night) | 10 KM |
| 2025-05-09 07:03:03 | 27 | 89 | 0.0 | 25 | 240 | 5.7 | 1010 | Thunderstorm | 15 KM |
| 2025-05-09 06:17:12 | 27 | 92 | 0.0 | 25 | 200 | 3.8 | 1007 | Partly Cloudy (Night) | 10 KM |
| 2025-05-09 06:01:33 | 26 | 91 | 0.0 | 25 | 210 | 7.6 | 1009 | Lightning | 10 km |
| 2025-05-09 05:07:01 | 27 | 89 | 0.0 | 25 | 190 | 5.7 | 1008 | Lightning | 10 km |
| 2025-05-09 05:00:04 | 27 | 89 | 0.0 | 25 | 190 | 5.7 | 1008 | Partly Cloudy (Day) | 10 km |
| 2025-05-09 03:58:59 | 27 | 92 | 0.0 | 25 | 170 | 5.7 | 1008 | Partly Cloudy (Night) | 10 km |
| 2025-05-09 03:10:22 | 27 | 92 | 0.0 | 25 | 200 | 3.8 | 1007 | Partly Cloudy (Night) | 10 KM |
| 2025-05-09 03:10:15 | 27 | 92 | 0.0 | 25 | 200 | 3.8 | 1007 | Partly Cloudy (Night) | 10 KM |
| 2025-05-09 03:10:01 | 27 | 92 | 0.0 | 25 | 200 | 3.8 | 1007 | Partly Cloudy (Night) | 10 LM |
| 2025-05-09 03:08:05 | 27 | 90 | 0.0 | 26 | 220 | 5.7 | 1008 | Partly Cloudy (Night) | 10 KM |
| 2025-05-09 02:21:44 | 27 | 90 | 0.0 | 26 | 220 | 5.7 | 1008 | Partly Cloudy (Night) | 10 KM |
| 2025-05-09 02:17:14 | 27 | 90 | 0.0 | 26 | 220 | 5.7 | 1008 | Partly Cloudy (Night) | 10 KM |
| 2025-05-09 02:09:15 | 27 | 90 | 0.0 | 26 | 220 | 5.7 | 1008 | Partly Cloudy (Night) | 10 KM |
| 2025-05-09 02:09:10 | 27 | 90 | 0.0 | 26 | 220 | 5.7 | 1008 | Partly Cloudy (Night) | 10 KM |
| 2025-05-09 02:09:02 | 27 | 90 | 0.0 | 26 | 220 | 5.7 | 1008 | Partly Cloudy (Night) | 10 KM |
| 2025-05-09 01:06:08 | 28 | 85 | 0.0 | 25 | 170 | 5.7 | 1008 | Partly Cloudy (Night) | 10 KM |
| 2025-05-08 23:58:24 | 28 | 86 | 0.0 | 25 | 030 | 1.9 | 1008 | Partly Cloudy (Night) | 10 KM |
| 2025-05-08 22:59:28 | 28 | 82 | 0.0 | 25 | 060 | 3.8 | 1009 | Partly Cloudy (Night) | 10 KM |
| 2025-05-08 21:59:17 | 28 | 83 | 0.0 | 25 | 080 | 3.8 | 1009 | Partly Cloudy (Night) | 10 KM |